Hovedside
METAR-TAF:

METAR-TAF

Lufthavner :

Andøya, Norge

Andøya lufthavn. Andenes

breddegrad: 69-18N, lengdegrad: 016-09E, høyde over havet: 1 m

Gjeldene værobservasjon

Denne rapporten ble laget for 19 minutter siden, klokken 07:20 UTC
Vind 3 kt fra skiftende retning
Temperatur 5°C
Luftfuktighet 87%
Trykk 997 hPa
Sikt 10 km eller mer

METAR: ENAN 210720Z AUTO VRB03KT 9999 BKN074/// 05/03 Q0997

Tid: 09:39 (07:39 UTC)

Varsel

Varsel gyldig fra 21. klokken 06 UTC til 22. klokken 06 UTC
Vind 5 kt fra Sør
Sikt 10 km eller mer
Spredte skyer i en høyde av 3000 ft
Brutte skyer i en høyde av 6000 ft

TAF: ENAN 2106/2206 18005KT 9999 SCT030 BKN060

Værobservasjoner og værvarsel for over 4000 flyplasser (METAR- og TAF-rapporter).

Tilgjengelige stasjoner er representert av de røde og gule prikkene på kartet.

Hold musepekeren over prikken for å se navnet på stasjonen.

Klikk så for å se værobservasjoner og -varsler.

For å forandre kartet kan du klikke på den grønne knappen med svart kryss for å zoome inn, på den grønne knappen med strek for å zoome ut, eller på de grønne pilene for å se tilstøtende kart.


METAR-TAF: